Saint Charles, Missouri
Current Conditions -  °F | °C
As of 7:54 AM on Sunday 21 Dec 2014 (Local Time) from KSET Reporting Station
Overcast Overcast  
Wind Chill: 32°   Ceiling: 2500
Heat Index: 39°   Visibility: 8mi
Dew Point: 34°   Wind: 10mph
Humidity: 82%   Direction: 140°SE
Pressure: 30.19"   Gusts: NA
Location:  38.93°N, 90.43°W
Report Text: KSET 211354Z AUTO 14009KT 8SM OVC025 04/01 A3019 RMK AO2 SLP227 T00390011
Loading
Personal Weather Stations






























Interactive Weather Map New forecast layout! Learn more

10-Day Weather Forecast

Advertisements
Track Severe Weather on mobile